Time;durP1;ratioP1;P1;durP2;ratioP2;P2;SDS_P1;SDS_P2;PMS_P1;PMS_P2;Temp;Humidity;BMP_temperature;BMP_pressure;BME280_temperature;BME280_humidity;BME280_pressure;Samples;Min_cycle;Max_cycle;Signal;HPM_P1;HPM_P2
2022/01/18 00:00:10;;;;;;;43.00;5.18;;;8.00;99.90;;;;;;5010305;28;20045;-66
2022/01/18 00:02:38;;;;;;;29.92;5.05;;;8.00;99.90;;;;;;5010109;28;20050;-66
2022/01/18 00:05:05;;;;;;;31.33;3.90;;;7.90;99.90;;;;;;5010993;28;20034;-67
2022/01/18 00:07:30;;;;;;;39.03;4.88;;;7.90;99.90;;;;;;5011427;28;20092;-67
2022/01/18 00:09:56;;;;;;;39.13;5.10;;;7.90;99.90;;;;;;5011402;28;20042;-66
2022/01/18 00:12:54;;;;;;;33.08;4.63;;;7.90;99.90;;;;;;5010131;28;20192;-66
2022/01/18 00:18:06;;;;;;;35.70;4.88;;;7.90;99.90;;;;;;5010098;28;20049;-66
2022/01/18 00:23:04;;;;;;;37.42;5.53;;;7.90;99.90;;;;;;5009992;28;20050;-66
2022/01/18 00:25:30;;;;;;;34.13;4.38;;;7.90;99.90;;;;;;5009888;28;20042;-66
2022/01/18 00:27:55;;;;;;;41.22;5.25;;;7.90;99.90;;;;;;5009749;28;20417;-67
2022/01/18 00:31:04;;;;;;;44.40;5.63;;;7.90;99.90;;;;;;5009751;28;20038;-66
2022/01/18 00:35:57;;;;;;;42.88;6.13;;;7.90;99.90;;;;;;5011076;28;20421;-66
2022/01/18 00:38:55;;;;;;;45.67;7.25;;;7.90;99.90;;;;;;5009620;28;20116;-66
2022/01/18 00:41:15;;;;;;;;;;;7.90;99.90;;;;;;5009107;28;20046;-66
2022/01/18 00:43:41;;;;;;;34.70;4.97;;;7.90;99.90;;;;;;5010733;28;19922;-66
2022/01/18 00:46:07;;;;;;;42.80;6.03;;;7.90;99.90;;;;;;5010917;28;20128;-67
2022/01/18 00:48:35;;;;;;;38.10;5.25;;;7.90;99.90;;;;;;5010442;28;20128;-66
2022/01/18 00:51:05;;;;;;;29.63;4.30;;;7.90;99.90;;;;;;5010861;28;20073;-66
2022/01/18 00:53:32;;;;;;;34.45;5.55;;;7.80;99.90;;;;;;5009453;28;20053;-68
2022/01/18 00:56:16;;;;;;;29.83;4.93;;;7.80;99.90;;;;;;5009824;28;20038;-67
2022/01/18 00:58:43;;;;;;;32.22;4.60;;;7.80;99.90;;;;;;5009332;28;20121;-67
2022/01/18 01:01:10;;;;;;;34.20;5.65;;;7.80;99.90;;;;;;5009033;28;20037;-67
2022/01/18 01:03:37;;;;;;;32.30;4.75;;;7.80;99.90;;;;;;5010519;28;20050;-67
2022/01/18 01:06:05;;;;;;;32.40;4.80;;;7.80;99.90;;;;;;5010716;28;20117;-68
2022/01/18 01:08:31;;;;;;;33.38;4.85;;;7.80;99.90;;;;;;5010441;28;20042;-67
2022/01/18 01:10:56;;;;;;;38.80;5.65;;;7.80;99.90;;;;;;5009289;28;20131;-67
2022/01/18 01:13:23;;;;;;;33.17;5.45;;;7.80;99.90;;;;;;5008733;28;20038;-67
2022/01/18 01:45:40;;;;;;;34.17;5.03;;;7.60;99.90;;;;;;5010136;28;20495;-67
2022/01/18 01:48:07;;;;;;;20.75;3.15;;;7.60;99.90;;;;;;5008700;28;20042;-67
2022/01/18 01:50:48;;;;;;;35.30;6.43;;;7.60;99.90;;;;;;5008917;28;20077;-67
2022/01/18 01:53:15;;;;;;;38.88;5.57;;;7.50;99.90;;;;;;5009606;28;20038;-67
2022/01/18 01:55:41;;;;;;;35.17;5.28;;;7.60;99.90;;;;;;5009882;28;20141;-67
2022/01/18 01:58:07;;;;;;;42.55;6.43;;;7.50;99.90;;;;;;5010059;28;20034;-67
2022/01/18 02:00:40;;;;;;;24.80;4.57;;;7.50;99.90;;;;;;5008543;28;20042;-67
2022/01/18 02:03:06;;;;;;;42.05;6.00;;;7.50;99.90;;;;;;5009598;28;20053;-67
2022/01/18 02:05:31;;;;;;;35.78;5.45;;;7.40;99.90;;;;;;5008287;28;20038;-67
2022/01/18 02:07:57;;;;;;;40.75;5.38;;;7.40;99.90;;;;;;5009786;28;20033;-67
2022/01/18 02:10:22;;;;;;;37.65;6.00;;;7.40;99.90;;;;;;5008622;28;20096;-67
2022/01/18 02:12:48;;;;;;;32.38;5.10;;;7.40;99.90;;;;;;5009612;28;20057;-67
2022/01/18 02:15:17;;;;;;;36.90;5.95;;;7.40;99.90;;;;;;5009750;28;20042;-68
2022/01/18 02:23:21;;;;;;;37.75;5.90;;;7.40;99.90;;;;;;5008127;28;20060;-68
2022/01/18 02:25:47;;;;;;;30.65;6.70;;;7.40;99.90;;;;;;5009551;28;20038;-67
2022/01/18 02:28:16;;;;;;;31.65;5.18;;;7.30;99.90;;;;;;5012451;28;20445;-67
2022/01/18 02:30:41;;;;;;;38.00;5.95;;;7.30;99.90;;;;;;5013346;28;20436;-67
2022/01/18 02:33:07;;;;;;;37.03;6.50;;;7.20;99.90;;;;;;5013158;28;20038;-67
2022/01/18 02:35:34;;;;;;;33.03;6.72;;;7.20;99.90;;;;;;5013360;28;20037;-67
2022/01/18 02:38:00;;;;;;;29.35;6.28;;;7.20;99.90;;;;;;5011882;28;20128;-67
2022/01/18 02:40:26;;;;;;;35.45;6.05;;;7.10;99.90;;;;;;5013205;28;20084;-67
2022/01/18 02:42:59;;;;;;;36.08;5.68;;;7.10;99.90;;;;;;5012796;28;20117;-67
2022/01/18 02:45:24;;;;;;;33.13;5.63;;;7.00;99.90;;;;;;5013239;28;20041;-67
2022/01/18 02:47:50;;;;;;;35.45;6.18;;;7.00;99.90;;;;;;5011156;23;20054;-67
2022/01/18 02:50:21;;;;;;;35.38;5.95;;;6.90;99.90;;;;;;4993211;28;20103;-67
2022/01/18 02:52:46;;;;;;;34.17;5.75;;;6.90;99.90;;;;;;4975726;28;20042;-67
2022/01/18 02:55:12;;;;;;;46.53;6.32;;;7.00;99.90;;;;;;4975932;28;20052;-68
2022/01/18 02:57:53;;;;;;;35.00;6.30;;;6.90;99.90;;;;;;4993008;28;20034;-67
2022/01/18 03:00:31;;;;;;;38.28;6.18;;;6.80;99.90;;;;;;4992060;28;20108;-67
2022/01/18 03:03:15;;;;;;;37.45;6.90;;;6.80;99.90;;;;;;4993178;28;20057;-67
2022/01/18 03:05:43;;;;;;;36.38;6.65;;;6.80;99.90;;;;;;4993113;28;20042;-67
2022/01/18 03:08:10;;;;;;;22.92;4.43;;;6.80;99.90;;;;;;5008141;28;20400;-67
2022/01/18 03:10:37;;;;;;;35.67;6.65;;;6.80;99.90;;;;;;5008367;28;20077;-67
2022/01/18 03:13:03;;;;;;;38.88;7.30;;;6.80;99.90;;;;;;4992869;28;20050;-67
2022/01/18 03:15:29;;;;;;;36.55;5.88;;;6.70;99.90;;;;;;5007976;28;20050;-67
2022/01/18 03:17:55;;;;;;;27.48;5.18;;;6.80;99.90;;;;;;4992810;28;20030;-67
2022/01/18 03:20:22;;;;;;;31.80;5.65;;;6.80;99.90;;;;;;4992766;28;20092;-67
2022/01/18 03:22:49;;;;;;;27.77;5.70;;;6.80;99.90;;;;;;4992597;28;20050;-67
2022/01/18 03:28:05;;;;;;;36.40;6.43;;;6.70;99.90;;;;;;4991504;28;20113;-67
2022/01/18 03:30:42;;;;;;;49.45;5.45;;;6.70;99.90;;;;;;4992634;28;20445;-67
2022/01/18 03:33:13;;;;;;;33.45;6.22;;;6.70;99.90;;;;;;4992369;28;20050;-66
2022/01/18 03:35:40;;;;;;;32.15;5.53;;;6.70;99.90;;;;;;4992868;28;20054;-66
2022/01/18 03:38:07;;;;;;;33.45;6.28;;;6.70;99.90;;;;;;4990898;28;20046;-66
2022/01/18 03:40:33;;;;;;;26.70;5.35;;;6.70;99.90;;;;;;4992396;28;20053;-66
2022/01/18 03:43:01;;;;;;;27.02;6.03;;;6.70;99.90;;;;;;5007239;28;20042;-66
2022/01/18 03:45:31;;;;;;;22.45;4.97;;;6.70;99.90;;;;;;4992633;28;20164;-66
2022/01/18 03:48:01;;;;;;;24.45;5.90;;;6.70;99.90;;;;;;4992258;28;20054;-66
2022/01/18 03:50:27;;;;;;;36.05;6.53;;;6.70;99.90;;;;;;4992347;28;20112;-66
2022/01/18 03:52:53;;;;;;;26.17;5.53;;;6.70;99.90;;;;;;4992137;28;20549;-66
2022/01/18 03:55:21;;;;;;;23.45;5.00;;;6.70;99.90;;;;;;4991061;28;20536;-66
2022/01/18 03:57:47;;;;;;;33.33;6.22;;;6.70;99.90;;;;;;4992163;28;20580;-66
2022/01/18 04:00:16;;;;;;;25.92;5.18;;;6.70;99.90;;;;;;4991945;28;20145;-66
2022/01/18 04:02:41;;;;;;;24.90;4.72;;;6.60;99.90;;;;;;4990508;28;20042;-66
2022/01/18 04:05:08;;;;;;;23.75;5.60;;;6.60;99.90;;;;;;4992131;28;20075;-66
2022/01/18 04:07:33;;;;;;;27.30;5.22;;;6.60;99.90;;;;;;4992211;28;20149;-66
2022/01/18 04:09:59;;;;;;;22.85;4.68;;;6.60;99.90;;;;;;5007243;28;20254;-66
2022/01/18 04:12:24;;;;;;;25.00;4.45;;;6.60;99.90;;;;;;4991637;28;20046;-66
2022/01/18 04:14:50;;;;;;;24.63;5.22;;;6.60;99.90;;;;;;4991615;28;20101;-66
2022/01/18 04:17:43;;;;;;;26.67;5.38;;;6.60;99.90;;;;;;4992017;28;20117;-66
2022/01/18 04:28:43;;;;;;;21.58;3.40;;;6.60;99.90;;;;;;4991766;28;20046;-66
2022/01/18 04:31:10;;;;;;;26.73;5.53;;;6.60;99.90;;;;;;4991546;28;20113;-66
2022/01/18 04:33:37;;;;;;;31.05;5.60;;;6.60;99.90;;;;;;4991122;28;20046;-66
2022/01/18 04:36:05;;;;;;;33.97;5.10;;;6.60;99.90;;;;;;5006611;28;20070;-66
2022/01/18 04:38:31;;;;;;;33.58;5.78;;;6.70;99.90;;;;;;4991577;28;20126;-66
2022/01/18 04:41:05;;;;;;;28.13;5.18;;;6.70;99.90;;;;;;4991202;28;20038;-66
2022/01/18 04:43:47;;;;;;;29.25;5.65;;;6.70;99.90;;;;;;4989866;28;20047;-66
2022/01/18 04:48:57;;;;;;;33.05;4.93;;;6.70;99.90;;;;;;4991032;28;20278;-66
2022/01/18 04:51:22;;;;;;;22.40;4.45;;;6.70;99.90;;;;;;4990753;28;20718;-66
2022/01/18 04:53:54;;;;;;;27.45;4.85;;;6.70;99.90;;;;;;5006165;28;20046;-66
2022/01/18 04:59:00;;;;;;;25.85;4.22;;;6.70;99.90;;;;;;4991376;28;20072;-66
2022/01/18 05:01:26;;;;;;;20.40;4.30;;;6.70;99.90;;;;;;5005908;28;20038;-66
2022/01/18 05:03:51;;;;;;;33.95;5.57;;;6.70;99.90;;;;;;4991054;28;20040;-66
2022/01/18 05:06:19;;;;;;;28.40;5.53;;;6.70;99.90;;;;;;4989700;28;20116;-66
2022/01/18 05:08:45;;;;;;;24.20;5.82;;;6.70;99.90;;;;;;4990737;28;20042;-66
2022/01/18 05:11:14;;;;;;;24.42;4.60;;;6.70;99.90;;;;;;4990793;28;20050;-66
2022/01/18 05:16:29;;;;;;;23.90;4.85;;;6.80;99.90;;;;;;4990710;28;20038;-66
2022/01/18 05:19:22;;;;;;;29.73;4.50;;;6.80;99.90;;;;;;4990712;28;20120;-66
2022/01/18 05:24:32;;;;;;;28.52;5.32;;;6.80;99.90;;;;;;4990699;28;20038;-66
2022/01/18 05:26:59;;;;;;;22.88;4.80;;;6.80;99.90;;;;;;4990759;28;20426;-66
2022/01/18 05:29:26;;;;;;;19.35;4.57;;;6.80;99.90;;;;;;4990486;28;20097;-66
2022/01/18 05:31:52;;;;;;;25.48;4.93;;;6.80;99.90;;;;;;4990254;28;20406;-66
2022/01/18 05:34:18;;;;;;;27.50;5.35;;;6.90;99.90;;;;;;4990608;28;20039;-66
2022/01/18 05:36:44;;;;;;;15.88;4.38;;;6.80;99.90;;;;;;4990765;28;20042;-66
2022/01/18 05:39:10;;;;;;;25.63;5.28;;;6.80;99.90;;;;;;4990343;28;20128;-66
2022/01/18 05:41:40;;;;;;;19.65;4.88;;;6.90;99.90;;;;;;4990394;28;20057;-66
2022/01/18 05:44:07;;;;;;;20.65;5.05;;;6.90;99.90;;;;;;4989002;28;20054;-66
2022/01/18 05:46:33;;;;;;;16.98;4.00;;;6.90;99.90;;;;;;5005493;28;20050;-66
2022/01/18 05:49:01;;;;;;;22.13;4.93;;;6.90;99.90;;;;;;4990289;28;20049;-67
2022/01/18 05:51:27;;;;;;;27.95;5.00;;;6.90;99.90;;;;;;4986105;28;20113;-67
2022/01/18 05:53:53;;;;;;;22.60;4.00;;;6.90;99.90;;;;;;4987433;28;20113;-67
2022/01/18 05:56:18;;;;;;;16.67;4.10;;;6.80;99.90;;;;;;4987744;28;20569;-66
2022/01/18 05:58:45;;;;;;;17.02;4.15;;;6.80;99.90;;;;;;4986240;28;20057;-66
2022/01/18 06:01:13;;;;;;;21.38;5.07;;;6.80;99.90;;;;;;4988780;28;20101;-66
2022/01/18 06:03:54;;;;;;;22.88;4.88;;;6.80;99.90;;;;;;4990314;28;20057;-66
2022/01/18 06:09:03;;;;;;;23.65;5.45;;;6.80;99.90;;;;;;4991757;28;20050;-65
2022/01/18 06:11:29;;;;;;;19.30;4.57;;;6.80;99.90;;;;;;4991504;28;20371;-66
2022/01/18 06:13:55;;;;;;;29.95;5.05;;;6.90;99.90;;;;;;4991597;28;20048;-65
2022/01/18 06:16:20;;;;;;;17.75;4.65;;;6.80;99.90;;;;;;4991848;28;20610;-65
2022/01/18 06:18:46;;;;;;;23.05;5.45;;;6.80;99.90;;;;;;4991977;28;20096;-66
2022/01/18 06:21:11;;;;;;;23.77;4.25;;;6.80;99.90;;;;;;4990091;28;20096;-67
2022/01/18 06:23:37;;;;;;;15.25;4.43;;;6.80;99.90;;;;;;4990094;28;20050;-66
2022/01/18 06:26:03;;;;;;;12.07;3.38;;;6.70;99.90;;;;;;4990187;28;20050;-66
2022/01/18 06:28:32;;;;;;;17.75;3.50;;;6.70;99.90;;;;;;4989891;28;20134;-66
2022/01/18 06:30:57;;;;;;;15.20;3.47;;;6.70;99.90;;;;;;4991034;28;20043;-66
2022/01/18 06:33:23;;;;;;;19.77;4.00;;;6.70;99.90;;;;;;4990926;28;20061;-67
2022/01/18 06:35:48;;;;;;;16.83;4.10;;;6.70;99.90;;;;;;4991179;28;20046;-66
2022/01/18 06:38:14;;;;;;;14.98;3.97;;;6.70;99.90;;;;;;4991294;28;20050;-66
2022/01/18 06:40:39;;;;;;;19.23;3.35;;;6.70;99.90;;;;;;4989471;28;20054;-66
2022/01/18 06:43:05;;;;;;;15.25;3.90;;;6.70;99.90;;;;;;4991125;28;20042;-66
2022/01/18 06:45:31;;;;;;;22.40;5.07;;;6.60;99.90;;;;;;4991477;28;20497;-66
2022/01/18 06:47:57;;;;;;;23.38;4.75;;;6.60;99.90;;;;;;4992001;28;20077;-66
2022/01/18 06:50:22;;;;;;;21.95;4.40;;;6.60;99.90;;;;;;4989826;28;20131;-66
2022/01/18 06:52:48;;;;;;;21.80;4.97;;;6.60;99.90;;;;;;5005958;28;20050;-65
2022/01/18 06:55:13;;;;;;;20.60;4.75;;;6.60;99.90;;;;;;4991189;28;20034;-65
2022/01/18 06:57:39;;;;;;;21.27;5.00;;;6.60;99.90;;;;;;4991257;28;20045;-65
2022/01/18 07:00:06;;;;;;;17.98;4.75;;;6.60;99.90;;;;;;4990807;28;20488;-65
2022/01/18 07:02:32;;;;;;;22.73;4.82;;;6.70;99.90;;;;;;5005292;28;20054;-68
2022/01/18 07:04:57;;;;;;;22.02;5.32;;;6.60;99.90;;;;;;4991255;28;20429;-68
2022/01/18 07:07:23;;;;;;;24.60;5.80;;;6.60;99.90;;;;;;4991270;28;20535;-68
2022/01/18 07:09:49;;;;;;;22.33;5.47;;;6.60;99.90;;;;;;4991332;28;20050;-68
2022/01/18 07:12:15;;;;;;;29.00;5.78;;;6.50;99.90;;;;;;4991016;28;20042;-68
2022/01/18 07:14:42;;;;;;;16.65;5.07;;;6.50;99.90;;;;;;4991585;28;20045;-68
2022/01/18 07:17:08;;;;;;;26.75;6.05;;;6.50;99.90;;;;;;4990850;28;20042;-68
2022/01/18 07:19:34;;;;;;;25.67;6.03;;;6.50;99.90;;;;;;4990796;28;20042;-68
2022/01/18 07:22:01;;;;;;;28.92;5.85;;;6.40;99.90;;;;;;4992049;28;20128;-68
2022/01/18 07:24:38;;;;;;;23.25;5.60;;;6.40;99.90;;;;;;4991457;28;20070;-68
2022/01/18 07:27:05;;;;;;;26.63;5.63;;;6.50;99.90;;;;;;5008094;28;20081;-68
2022/01/18 07:29:31;;;;;;;20.25;5.75;;;6.50;99.90;;;;;;4992887;28;20406;-68
2022/01/18 07:31:57;;;;;;;26.13;5.68;;;6.50;99.90;;;;;;4992846;28;20521;-68
2022/01/18 07:34:23;;;;;;;27.63;5.55;;;6.40;99.90;;;;;;4992474;28;20042;-68
2022/01/18 07:36:48;;;;;;;19.98;5.35;;;6.40;99.90;;;;;;5007534;28;20509;-68
2022/01/18 07:39:14;;;;;;;30.40;5.47;;;6.40;99.90;;;;;;4992360;28;20073;-68
2022/01/18 07:41:40;;;;;;;21.83;5.50;;;6.30;99.90;;;;;;4991127;28;20048;-68
2022/01/18 07:44:06;;;;;;;26.35;5.43;;;6.40;99.90;;;;;;5007656;28;20129;-68
2022/01/18 07:46:31;;;;;;;27.85;5.75;;;6.30;99.90;;;;;;4992372;28;20038;-69
2022/01/18 07:48:57;;;;;;;21.88;4.80;;;6.30;99.90;;;;;;4992192;28;20113;-68
2022/01/18 07:51:22;;;;;;;25.85;6.32;;;6.30;99.90;;;;;;4992085;28;20046;-68
2022/01/18 07:53:48;;;;;;;16.23;5.00;;;6.30;99.90;;;;;;4990992;28;20049;-68
2022/01/18 07:56:13;;;;;;;19.33;5.65;;;6.30;99.90;;;;;;4991119;28;20046;-68
2022/01/18 07:58:39;;;;;;;14.95;4.78;;;6.30;99.90;;;;;;4992210;28;20074;-68
2022/01/18 08:01:04;;;;;;;20.35;5.78;;;6.30;99.90;;;;;;4992023;28;20497;-68
2022/01/18 08:03:30;;;;;;;27.02;6.00;;;6.30;99.90;;;;;;4991901;28;20379;-68
2022/01/18 08:05:56;;;;;;;24.17;6.65;;;6.40;99.90;;;;;;5007004;28;20118;-68
2022/01/18 08:08:22;;;;;;;26.10;6.50;;;6.40;99.90;;;;;;4992170;28;20034;-68
2022/01/18 08:10:48;;;;;;;27.27;6.32;;;6.40;99.90;;;;;;4992103;28;20056;-69
2022/01/18 08:13:14;;;;;;;32.47;7.03;;;6.40;99.90;;;;;;4990270;28;20042;-68
2022/01/18 08:15:42;;;;;;;26.20;6.22;;;6.40;99.90;;;;;;4991915;28;20038;-68
2022/01/18 08:18:10;;;;;;;25.50;6.38;;;6.40;99.90;;;;;;4991872;28;20504;-68
2022/01/18 08:20:36;;;;;;;25.38;7.30;;;6.40;99.90;;;;;;4990303;28;20074;-68
2022/01/18 08:23:01;;;;;;;26.48;7.05;;;6.40;99.90;;;;;;4991661;28;20085;-68
2022/01/18 08:25:27;;;;;;;25.02;6.47;;;6.50;99.90;;;;;;4990878;28;20077;-68
2022/01/18 08:27:52;;;;;;;31.73;6.70;;;6.40;99.90;;;;;;4991437;28;20052;-68
2022/01/18 08:30:19;;;;;;;25.55;6.85;;;6.40;99.90;;;;;;4991484;28;20042;-69
2022/01/18 08:32:46;;;;;;;21.85;6.65;;;6.50;99.90;;;;;;5005992;28;20050;-67
2022/01/18 08:35:12;;;;;;;20.60;6.43;;;6.40;99.90;;;;;;4991346;28;20554;-67
2022/01/18 08:37:37;;;;;;;25.85;7.00;;;6.50;99.90;;;;;;4991462;28;20038;-64
2022/01/18 08:40:04;;;;;;;27.70;7.05;;;6.40;99.90;;;;;;4991494;28;20092;-63
2022/01/18 08:42:30;;;;;;;31.05;7.97;;;6.40;99.90;;;;;;4989656;28;20038;-63
2022/01/18 08:44:56;;;;;;;19.33;6.10;;;6.50;99.90;;;;;;4991391;28;20100;-63
2022/01/18 08:47:24;;;;;;;29.93;6.77;;;6.50;99.90;;;;;;5052566;23;20111;-66
2022/01/18 08:49:50;;;;;;;24.73;7.10;;;6.50;99.90;;;;;;5010033;28;20137;-66
2022/01/18 08:52:16;;;;;;;24.45;7.65;;;6.50;99.90;;;;;;4993076;28;20176;-66
2022/01/18 08:54:42;;;;;;;22.35;6.93;;;6.50;99.90;;;;;;4976725;28;20057;-66
2022/01/18 08:57:15;;;;;;;23.35;7.03;;;6.50;99.90;;;;;;5086470;27;20893;-67
2022/01/18 08:59:43;;;;;;;26.27;7.03;;;6.60;99.90;;;;;;5085111;28;20068;-66
2022/01/18 09:02:10;;;;;;;26.33;8.18;;;6.60;99.90;;;;;;5087144;28;20505;-67
2022/01/18 09:04:36;;;;;;;24.10;7.35;;;6.60;99.90;;;;;;5087249;28;20047;-66
2022/01/18 09:07:08;;;;;;;27.40;7.88;;;6.70;99.90;;;;;;5087329;28;20036;-67
2022/01/18 09:09:41;;;;;;;26.13;7.00;;;6.60;99.90;;;;;;5086239;28;20044;-66
2022/01/18 09:12:10;;;;;;;24.00;6.50;;;6.70;99.90;;;;;;5087150;28;20040;-67
2022/01/18 09:14:36;;;;;;;21.63;6.47;;;6.70;99.90;;;;;;5085512;28;20514;-67
2022/01/18 09:17:02;;;;;;;15.82;5.57;;;6.80;99.90;;;;;;5086975;28;20046;-67
2022/01/18 09:19:28;;;;;;;22.75;6.40;;;6.80;99.90;;;;;;5087268;28;20044;-66
2022/01/18 09:21:54;;;;;;;17.15;6.53;;;6.80;99.90;;;;;;5086889;28;20040;-67
2022/01/18 09:24:19;;;;;;;19.48;5.68;;;6.90;99.90;;;;;;5086534;28;20097;-66
2022/01/18 09:26:45;;;;;;;22.13;6.40;;;6.90;99.90;;;;;;5086691;28;20041;-67
2022/01/18 09:29:11;;;;;;;20.98;6.10;;;6.90;99.90;;;;;;5086510;28;20089;-66
2022/01/18 09:31:37;;;;;;;21.98;7.03;;;6.90;99.90;;;;;;5086926;28;20044;-67
2022/01/18 09:34:04;;;;;;;24.58;7.10;;;6.90;99.90;;;;;;5086394;28;20439;-67
2022/01/18 09:36:29;;;;;;;27.30;6.82;;;7.00;99.90;;;;;;5086706;28;20087;-66
2022/01/18 09:38:55;;;;;;;22.75;6.50;;;7.00;99.90;;;;;;5086484;28;20079;-67
2022/01/18 09:41:27;;;;;;;24.10;7.20;;;7.00;99.90;;;;;;5086400;28;20051;-66
2022/01/18 09:43:53;;;;;;;24.58;7.65;;;7.10;99.90;;;;;;5086179;28;20101;-66
2022/01/18 09:46:18;;;;;;;19.65;7.07;;;7.00;99.90;;;;;;5086648;28;20482;-66
2022/01/18 09:48:44;;;;;;;21.25;6.40;;;7.00;99.90;;;;;;5085238;28;20118;-66
2022/01/18 09:51:10;;;;;;;20.10;7.28;;;7.00;99.90;;;;;;5086425;28;20094;-66
2022/01/18 09:53:35;;;;;;;20.05;6.88;;;7.10;99.90;;;;;;5086237;28;20446;-66
2022/01/18 09:56:01;;;;;;;26.00;7.43;;;7.10;99.90;;;;;;5086154;28;20072;-66
2022/01/18 09:58:27;;;;;;;24.60;7.95;;;7.20;99.90;;;;;;5085812;28;20036;-66
2022/01/18 10:00:52;;;;;;;23.35;7.28;;;7.10;99.90;;;;;;5086254;28;20045;-66
2022/01/18 10:03:33;;;;;;;28.48;8.75;;;7.20;99.90;;;;;;5085980;28;20033;-66
2022/01/18 10:05:59;;;;;;;27.13;8.02;;;7.20;99.90;;;;;;5086172;28;20048;-66
2022/01/18 10:08:25;;;;;;;24.17;6.85;;;7.20;99.90;;;;;;5073447;28;20051;-66
2022/01/18 10:10:54;;;;;;;18.05;6.63;;;7.20;99.90;;;;;;5071254;28;20080;-66
2022/01/18 10:13:31;;;;;;;20.10;6.70;;;7.20;99.90;;;;;;5072363;28;20466;-66
2022/01/18 10:16:02;;;;;;;19.83;7.57;;;7.30;99.90;;;;;;5072438;28;20041;-66
2022/01/18 10:18:54;;;;;;;20.58;7.25;;;7.30;99.90;;;;;;5071004;28;20044;-66
2022/01/18 10:21:29;;;;;;;16.38;7.10;;;7.20;99.90;;;;;;5072076;28;20066;-66
2022/01/18 10:24:20;;;;;;;19.33;7.65;;;7.30;99.90;;;;;;5072104;28;20033;-66
2022/01/18 10:26:48;;;;;;;20.67;7.32;;;7.40;99.90;;;;;;5072299;28;20406;-66
2022/01/18 10:29:15;;;;;;;18.48;7.22;;;7.40;99.90;;;;;;5072053;28;20119;-66
2022/01/18 10:32:39;;;;;;;24.65;7.28;;;7.40;99.90;;;;;;5070724;28;20094;-66
2022/01/18 10:37:05;;;;;;;23.13;7.00;;;7.40;99.90;;;;;;5072260;28;20084;-66
2022/01/18 10:39:36;;;;;;;16.35;7.03;;;7.40;99.90;;;;;;5071887;28;20350;-66
2022/01/18 10:42:29;;;;;;;19.98;7.68;;;7.50;99.90;;;;;;5071874;28;20041;-66
2022/01/18 10:45:05;;;;;;;16.27;7.00;;;7.50;99.90;;;;;;5069065;28;20053;-66
2022/01/18 10:47:32;;;;;;;20.67;7.22;;;7.50;99.90;;;;;;5072180;28;20036;-66
2022/01/18 10:50:13;;;;;;;18.17;7.05;;;7.50;99.90;;;;;;5072061;28;20409;-66
2022/01/18 10:53:10;;;;;;;20.15;7.03;;;7.50;99.90;;;;;;5071495;28;20051;-66
2022/01/18 10:55:38;;;;;;;16.30;6.85;;;7.50;99.90;;;;;;5071368;28;20586;-66
2022/01/18 10:58:16;;;;;;;17.85;6.75;;;7.60;99.90;;;;;;5071797;28;20115;-66
2022/01/18 11:00:42;;;;;;;15.60;6.22;;;7.60;99.90;;;;;;5071835;28;20044;-66
2022/01/18 11:03:09;;;;;;;18.50;6.50;;;7.70;99.90;;;;;;5069949;28;20684;-66
2022/01/18 11:05:37;;;;;;;21.00;7.45;;;7.70;99.90;;;;;;5071692;28;20166;-66
2022/01/18 11:08:04;;;;;;;14.85;5.45;;;7.60;99.90;;;;;;5071560;28;20119;-66
2022/01/18 11:10:42;;;;;;;17.77;6.18;;;7.70;99.90;;;;;;5070285;28;20429;-66
2022/01/18 11:13:17;;;;;;;17.08;6.07;;;7.70;99.90;;;;;;5071234;28;20040;-66
2022/01/18 11:15:48;;;;;;;9.25;4.82;;;7.80;99.90;;;;;;5071104;28;20050;-66
2022/01/18 11:18:17;;;;;;;17.10;6.00;;;7.70;99.90;;;;;;5070964;28;20067;-66
2022/01/18 11:20:46;;;;;;;18.02;5.40;;;7.70;99.90;;;;;;5070810;28;20487;-66
2022/01/18 11:23:12;;;;;;;12.27;5.13;;;7.80;99.90;;;;;;5053075;28;20045;-66
2022/01/18 11:25:38;;;;;;;12.02;5.20;;;7.80;99.90;;;;;;5071156;28;20040;-66
2022/01/18 11:28:06;;;;;;;15.65;5.22;;;7.80;99.90;;;;;;5070830;28;20513;-66
2022/01/18 11:30:35;;;;;;;13.23;5.50;;;7.80;99.90;;;;;;5071152;28;20037;-66
2022/01/18 11:33:05;;;;;;;13.10;5.45;;;7.80;99.90;;;;;;5070964;28;20063;-66
2022/01/18 11:35:44;;;;;;;9.88;4.65;;;7.80;99.90;;;;;;5070447;28;20123;-66
2022/01/18 11:38:31;;;;;;;11.63;4.30;;;7.80;99.90;;;;;;5070407;28;20032;-66
2022/01/18 11:40:58;;;;;;;8.68;3.63;;;7.80;99.90;;;;;;5067135;28;20203;-66
2022/01/18 11:43:38;;;;;;;9.68;3.95;;;7.80;99.90;;;;;;5070469;28;20447;-66
2022/01/18 11:46:20;;;;;;;11.73;3.65;;;7.80;99.90;;;;;;5069302;28;20055;-66
2022/01/18 11:48:48;;;;;;;10.45;3.47;;;7.80;99.90;;;;;;5069759;28;20056;-66
2022/01/18 11:51:17;;;;;;;14.95;4.28;;;7.90;99.90;;;;;;5066304;28;20051;-66
2022/01/18 11:53:54;;;;;;;11.90;3.25;;;7.90;99.90;;;;;;5070000;28;20543;-66
2022/01/18 11:56:37;;;;;;;8.48;2.80;;;7.90;99.90;;;;;;5070028;28;20052;-66
2022/01/18 11:59:25;;;;;;;10.57;2.40;;;7.80;99.90;;;;;;5069564;28;20422;-66
2022/01/18 12:01:57;;;;;;;10.48;3.30;;;7.80;99.90;;;;;;5069114;28;20039;-66
2022/01/18 12:04:41;;;;;;;9.30;3.20;;;7.80;99.90;;;;;;5070420;28;20032;-66
2022/01/18 12:07:08;;;;;;;12.93;3.20;;;7.90;99.90;;;;;;5070126;28;20044;-66
2022/01/18 12:09:42;;;;;;;10.18;2.90;;;7.90;99.90;;;;;;5070055;28;20472;-66
2022/01/18 12:12:41;;;;;;;11.20;2.85;;;7.90;99.90;;;;;;5070496;28;20036;-66
2022/01/18 12:15:16;;;;;;;10.27;2.88;;;7.90;99.90;;;;;;5070151;28;20398;-66
2022/01/18 12:17:50;;;;;;;10.45;2.40;;;7.90;99.90;;;;;;5070103;28;20048;-66
2022/01/18 12:20:34;;;;;;;6.65;2.38;;;7.90;99.90;;;;;;5069941;28;20033;-66
2022/01/18 12:23:04;;;;;;;11.52;3.10;;;7.80;99.90;;;;;;5068649;28;20045;-66
2022/01/18 12:25:33;;;;;;;11.10;2.80;;;7.80;99.90;;;;;;5070252;28;20051;-66
2022/01/18 12:28:20;;;;;;;10.73;3.13;;;7.80;99.90;;;;;;5069981;28;20055;-66
2022/01/18 12:31:04;;;;;;;13.88;3.47;;;7.80;99.90;;;;;;5069519;28;20048;-66
2022/01/18 12:33:43;;;;;;;12.65;3.75;;;7.70;99.90;;;;;;5070125;28;20081;-66
2022/01/18 12:36:28;;;;;;;9.05;3.17;;;7.80;99.90;;;;;;5069999;28;20028;-66
2022/01/18 12:38:59;;;;;;;13.80;3.83;;;7.70;99.90;;;;;;5068417;28;20094;-66
2022/01/18 12:41:47;;;;;;;12.57;3.87;;;7.70;99.90;;;;;;5070073;28;20101;-66
2022/01/18 12:44:21;;;;;;;13.48;4.10;;;7.70;99.90;;;;;;5069905;28;20822;-66
2022/01/18 12:46:53;;;;;;;12.60;4.00;;;7.70;99.90;;;;;;5070001;28;20486;-66
2022/01/18 12:49:20;;;;;;;15.95;5.45;;;7.70;99.90;;;;;;5069628;28;20093;-66
2022/01/18 12:51:53;;;;;;;10.23;4.20;;;7.60;99.90;;;;;;5069884;28;20036;-66
2022/01/18 12:54:18;;;;;;;14.40;5.00;;;7.60;99.90;;;;;;5068656;28;20123;-66
2022/01/18 12:56:44;;;;;;;17.90;4.13;;;7.50;99.90;;;;;;5069887;28;20080;-66
2022/01/18 12:59:09;;;;;;;13.98;4.35;;;7.50;99.90;;;;;;5069726;28;20036;-66
2022/01/18 13:01:35;;;;;;;10.15;3.33;;;7.50;99.90;;;;;;5069811;28;20055;-66
2022/01/18 13:04:01;;;;;;;10.48;4.15;;;7.50;99.90;;;;;;5067980;28;20108;-66
2022/01/18 13:06:32;;;;;;;11.82;4.10;;;7.50;99.90;;;;;;5069831;28;20174;-66
2022/01/18 13:09:00;;;;;;;11.70;4.10;;;7.50;99.90;;;;;;5069838;28;20097;-66
2022/01/18 13:11:29;;;;;;;18.65;4.38;;;7.50;99.90;;;;;;5068555;28;20079;-66
2022/01/18 13:14:08;;;;;;;13.98;4.82;;;7.50;99.90;;;;;;5069447;28;20056;-66
2022/01/18 13:27:34;;;;;;;10.67;3.67;;;7.30;99.90;;;;;;5069834;28;20059;-66
2022/01/18 13:30:29;;;;;;;10.10;3.47;;;7.30;99.90;;;;;;5069483;28;20036;-66
2022/01/18 13:32:59;;;;;;;9.93;3.45;;;7.30;99.90;;;;;;5069135;28;20383;-66
2022/01/18 13:35:30;;;;;;;16.00;3.72;;;7.40;99.90;;;;;;5069229;28;20394;-66
2022/01/18 13:37:58;;;;;;;9.30;3.43;;;7.30;99.90;;;;;;5068660;28;20530;-66
2022/01/18 13:40:25;;;;;;;17.02;4.43;;;7.30;99.90;;;;;;5068408;28;20050;-66
2022/01/18 13:43:01;;;;;;;14.38;3.72;;;7.30;99.90;;;;;;5069311;28;20044;-66
2022/01/18 13:45:28;;;;;;;12.07;3.75;;;7.30;99.90;;;;;;5072692;28;20036;-66
2022/01/18 13:48:06;;;;;;;12.63;3.95;;;7.30;99.90;;;;;;5072802;28;20526;-66
2022/01/18 13:50:43;;;;;;;12.57;4.22;;;7.20;99.90;;;;;;5073236;28;20089;-66
2022/01/18 13:53:31;;;;;;;12.10;3.65;;;7.20;99.90;;;;;;5072817;28;20079;-66
2022/01/18 13:56:07;;;;;;;13.70;3.97;;;7.20;99.90;;;;;;5072460;28;20122;-66
2022/01/18 13:58:42;;;;;;;14.27;3.63;;;7.20;99.90;;;;;;5071486;28;20538;-66
2022/01/18 14:01:23;;;;;;;15.20;4.00;;;7.20;99.90;;;;;;5072916;28;20133;-66
2022/01/18 14:04:01;;;;;;;16.83;4.30;;;7.20;99.90;;;;;;5072711;28;20047;-66
2022/01/18 14:06:43;;;;;;;13.27;3.88;;;7.20;99.90;;;;;;5072480;28;20040;-66
2022/01/18 14:09:10;;;;;;;13.98;4.05;;;7.30;99.90;;;;;;5071199;28;20052;-66
2022/01/18 14:11:38;;;;;;;13.45;4.43;;;7.20;99.90;;;;;;5072702;28;20041;-66
2022/01/18 14:14:20;;;;;;;13.82;4.15;;;7.30;99.90;;;;;;5072720;28;20070;-66
2022/01/18 14:16:56;;;;;;;11.27;4.13;;;7.30;99.90;;;;;;5072202;28;20566;-66
2022/01/18 14:19:27;;;;;;;14.55;4.75;;;7.20;99.90;;;;;;5072301;28;20353;-66
2022/01/18 14:21:54;;;;;;;13.27;4.45;;;7.20;99.90;;;;;;5071080;28;20503;-66